^^
Weerstation Genderen Historische Gegevens
 
Daily Summary for May 14, 2021 Units:  Metric    English   Both
Daily Weekly Monthly Yearly
  Current: High: Low: Average:
Temperature: 17.2 °C 17.2 °C 8.1 °C 11.2 °C
Dew Point: 8.8 °C 10.6 °C 7.3 °C 8.9 °C
Humidity: 57.6% 96% 56.2% 87%
Wind Speed: 7.4km/h 9.8km/h 0km/h 1.9km/h
Wind Gust: 3.4km/h 8.4km/h - -
WindNW - - SW
Pressure: 1006.9 hPa 1007.5 hPa 1006.2 hPa -
Precipitation: 0.0 mm      
 
 
Tabular Data for May 14, 2021
Time Temperature Dew Point Pressure Wind Wind Speed Wind Gust Humidity Rainfall Rate (Hourly) solar
00:04 10.7 °C 9.6 °C 1006.7 hPa Calm     93% 0.0 mm W/m2
00:09 10.7 °C 9.6 °C 1006.8 hPa Calm     93% 0.0 mm W/m2
00:14 10.7 °C 9.6 °C 1006.8 hPa Calm     93% 0.0 mm W/m2
00:19 10.6 °C 9.5 °C 1006.9 hPa Calm     93% 0.0 mm W/m2
00:24 10.6 °C 9.5 °C 1006.8 hPa Calm     93% 0.0 mm W/m2
00:29 10.5 °C 9.4 °C 1006.8 hPa Calm     93% 0.0 mm W/m2
00:34 10.5 °C 9.4 °C 1006.7 hPa Calm     93% 0.0 mm W/m2
00:39 10.5 °C 9.3 °C 1006.7 hPa Calm     93% 0.0 mm W/m2
00:44 10.4 °C 9.3 °C 1006.7 hPa Calm     93% 0.0 mm W/m2
00:49 10.4 °C 9.3 °C 1006.8 hPa Calm     93% 0.0 mm W/m2
00:54 10.3 °C 9.2 °C 1006.8 hPa Calm     93% 0.0 mm W/m2
00:59 10.2 °C 9.2 °C 1006.8 hPa Calm     93% 0.0 mm W/m2
01:04 10.1 °C 9.1 °C 1006.7 hPa Calm     93% 0.0 mm W/m2
01:09 10.1 °C 9 °C 1006.7 hPa NW 4.1 km/h 1.6 km/h 93% 0.0 mm W/m2
01:14 10.1 °C 9 °C 1006.6 hPa Calm     93% 0.0 mm W/m2
01:19 10.1 °C 9 °C 1006.5 hPa Calm     93% 0.0 mm W/m2
01:24 10.1 °C 9 °C 1006.6 hPa Calm     93% 0.0 mm W/m2
01:29 10.1 °C 9 °C 1006.6 hPa Calm     93% 0.0 mm W/m2
01:34 10.1 °C 9 °C 1006.5 hPa Calm     93% 0.0 mm W/m2
01:39 10.1 °C 9 °C 1006.5 hPa Calm     93.2% 0.0 mm W/m2
01:44 10 °C 9.1 °C 1006.5 hPa Calm     94% 0.0 mm W/m2
01:49 10 °C 9.1 °C 1006.5 hPa Calm     94% 0.0 mm W/m2
01:54 10 °C 9.1 °C 1006.5 hPa Calm     94% 0.0 mm W/m2
01:59 10 °C 9.1 °C 1006.4 hPa Calm     94% 0.0 mm W/m2
02:04 10 °C 9 °C 1006.4 hPa Calm     94% 0.0 mm W/m2
02:09 9.9 °C 9 °C 1006.5 hPa Calm     94% 0.0 mm W/m2
02:14 9.9 °C 8.9 °C 1006.5 hPa Calm     94% 0.0 mm W/m2
02:19 9.9 °C 8.9 °C 1006.5 hPa Calm     94% 0.0 mm W/m2
02:24 9.8 °C 8.9 °C 1006.5 hPa Calm     94% 0.0 mm W/m2
02:29 9.8 °C 8.8 °C 1006.4 hPa Calm     94% 0.0 mm W/m2
02:34 9.7 °C 8.8 °C 1006.4 hPa Calm     94% 0.0 mm W/m2
02:39 9.7 °C 8.7 °C 1006.4 hPa Calm     94% 0.0 mm W/m2
02:44 9.6 °C 8.6 °C 1006.4 hPa Calm     94% 0.0 mm W/m2
02:49 9.5 °C 8.6 °C 1006.4 hPa Calm     94% 0.0 mm W/m2
02:54 9.4 °C 8.5 °C 1006.4 hPa Calm     94% 0.0 mm W/m2
02:59 9.4 °C 8.4 °C 1006.3 hPa Calm     94% 0.0 mm W/m2
03:04 9.3 °C 8.4 °C 1006.3 hPa Calm     94% 0.0 mm W/m2
03:09 9.2 °C 8.3 °C 1006.3 hPa Calm     94% 0.0 mm W/m2
03:14 9.2 °C 8.3 °C 1006.3 hPa Calm     94% 0.0 mm W/m2
03:19 9.2 °C 8.3 °C 1006.3 hPa Calm     94% 0.0 mm W/m2
03:24 9.2 °C 8.3 °C 1006.3 hPa Calm     94% 0.0 mm W/m2
03:29 9.2 °C 8.3 °C 1006.3 hPa Calm     94% 0.0 mm W/m2
03:34 9.2 °C 8.3 °C 1006.3 hPa Calm     94% 0.0 mm W/m2
03:39 9.1 °C 8.2 °C 1006.3 hPa Calm     94% 0.0 mm W/m2
03:44 9.1 °C 8.2 °C 1006.3 hPa Calm     94.1% 0.0 mm W/m2
03:49 9 °C 8.3 °C 1006.4 hPa Calm     95% 0.0 mm W/m2
03:54 9 °C 8.2 °C 1006.3 hPa Calm     95% 0.0 mm W/m2
03:59 8.9 °C 8.1 °C 1006.3 hPa Calm     94.8% 0.0 mm W/m2
04:04 8.9 °C 8 °C 1006.3 hPa Calm     94% 0.0 mm W/m2
04:09 8.8 °C 8 °C 1006.3 hPa Calm     94.7% 0.0 mm W/m2
04:14 8.8 °C 8 °C 1006.3 hPa Calm     95% 0.0 mm W/m2
04:19 8.8 °C 8 °C 1006.3 hPa Calm     95% 0.0 mm W/m2
04:24 8.7 °C 8 °C 1006.3 hPa Calm     95% 0.0 mm W/m2
04:29 8.7 °C 7.9 °C 1006.3 hPa Calm     95% 0.0 mm W/m2
04:34 8.6 °C 7.8 °C 1006.3 hPa Calm     95% 0.0 mm W/m2
04:39 8.5 °C 7.8 °C 1006.3 hPa Calm     95% 0.0 mm W/m2
04:44 8.4 °C 7.6 °C 1006.3 hPa Calm     95% 0.0 mm W/m2
04:49 8.3 °C 7.6 °C 1006.2 hPa Calm     95% 0.0 mm W/m2
04:54 8.3 °C 7.5 °C 1006.2 hPa Calm     95% 0.0 mm W/m2
04:59 8.2 °C 7.4 °C 1006.2 hPa Calm     95% 0.0 mm W/m2
05:04 8.1 °C 7.4 °C 1006.2 hPa Calm     95% 0.0 mm W/m2
05:09 8.1 °C 7.3 °C 1006.2 hPa Calm     95% 0.0 mm W/m2
05:14 8.1 °C 7.3 °C 1006.3 hPa Calm     95% 0.0 mm W/m2
05:19 8.1 °C 7.3 °C 1006.4 hPa Calm     95% 0.0 mm W/m2
05:24 8.1 °C 7.3 °C 1006.3 hPa Calm     95% 0.0 mm W/m2
05:29 8.2 °C 7.4 °C 1006.3 hPa NW 0.8 km/h   95% 0.0 mm W/m2
05:34 8.3 °C 7.6 °C 1006.3 hPa NW 0.8 km/h 0.2 km/h 95% 0.0 mm W/m2
05:39 8.5 °C 7.7 °C 1006.3 hPa Calm     95.2% 0.0 mm W/m2
05:44 8.6 °C 8 °C 1006.3 hPa NW 1.7 km/h 1.3 km/h 96% 0.0 mm W/m2
05:49 8.6 °C 8 °C 1006.3 hPa NW 2.1 km/h 1.3 km/h 95.6% 0.0 mm W/m2
05:54 8.7 °C 8 °C 1006.3 hPa NW 2.4 km/h 1.6 km/h 95% 0.0 mm W/m2
05:59 8.8 °C 8.2 °C 1006.3 hPa NW 2.6 km/h 2.7 km/h 95.8% 0.0 mm W/m2
06:04 9 °C 8.4 °C 1006.2 hPa NW 1.7 km/h   96% 0.0 mm W/m2
06:09 9 °C 8.4 °C 1006.2 hPa Calm     96% 0.0 mm W/m2
06:14 9.1 °C 8.4 °C 1006.3 hPa Calm     96% 0.0 mm W/m2
06:19 9.1 °C 8.5 °C 1006.3 hPa Calm     96% 0.0 mm W/m2
06:24 9.1 °C 8.5 °C 1006.3 hPa Calm     96% 0.0 mm W/m2
06:29 9 °C 8.3 °C 1006.3 hPa Calm     95.3% 0.0 mm W/m2
06:34 9 °C 8.2 °C 1006.3 hPa Calm     95% 0.0 mm W/m2
06:39 8.9 °C 8.2 °C 1006.3 hPa Calm     95.4% 0.0 mm W/m2
06:44 8.9 °C 8.3 °C 1006.3 hPa Calm     96% 0.0 mm W/m2
06:49 8.8 °C 8.2 °C 1006.3 hPa Calm     96% 0.0 mm W/m2
06:54 8.8 °C 8.1 °C 1006.4 hPa Calm     95.5% 0.0 mm W/m2
06:59 8.8 °C 8 °C 1006.4 hPa Calm     95% 0.0 mm W/m2
07:04 8.8 °C 8 °C 1006.4 hPa Calm     95% 0.0 mm W/m2
07:09 8.7 °C 8 °C 1006.4 hPa Calm     95% 0.0 mm W/m2
07:14 8.7 °C 7.9 °C 1006.4 hPa Calm     95.1% 0.0 mm W/m2
07:19 8.7 °C 8 °C 1006.5 hPa Calm     95.8% 0.0 mm W/m2
07:24 8.7 °C 8.1 °C 1006.5 hPa Calm     96% 0.0 mm W/m2
07:29 8.7 °C 8.1 °C 1006.5 hPa Calm     96% 0.0 mm W/m2
07:34 8.8 °C 8.2 °C 1006.5 hPa Calm     96% 0.0 mm W/m2
07:39 8.9 °C 8.3 °C 1006.5 hPa Calm     96% 0.0 mm W/m2
07:44 8.9 °C 8.3 °C 1006.6 hPa Calm     96% 0.0 mm W/m2
07:49 9 °C 8.4 °C 1006.5 hPa Calm     96% 0.0 mm W/m2
07:54 9.1 °C 8.5 °C 1006.6 hPa Calm     96% 0.0 mm W/m2
07:59 9.2 °C 8.6 °C 1006.6 hPa NW 0.6 km/h 1.4 km/h 96% 0.0 mm W/m2
08:04 9.3 °C 8.7 °C 1006.6 hPa NW 1 km/h 1.4 km/h 96% 0.0 mm W/m2
08:09 9.4 °C 8.8 °C 1006.6 hPa NW 1.2 km/h 0.5 km/h 96% 0.0 mm W/m2
08:14 9.6 °C 9 °C 1006.6 hPa NW 0.5 km/h 0.2 km/h 96% 0.0 mm W/m2
08:19 9.7 °C 9.1 °C 1006.7 hPa NW 1.6 km/h 0.6 km/h 96% 0.0 mm W/m2
08:24 9.9 °C 9.3 °C 1006.8 hPa NW 2.5 km/h 1.8 km/h 96% 0.0 mm W/m2
08:29 10 °C 9.4 °C 1006.8 hPa NW 1.6 km/h 0.8 km/h 96% 0.0 mm W/m2
08:34 10.1 °C 9.5 °C 1006.9 hPa NW 1.3 km/h 1.4 km/h 96% 0.0 mm W/m2
08:39 10.1 °C 9.5 °C 1006.9 hPa NW 1.3 km/h 1.3 km/h 96% 0.0 mm W/m2
08:44 10.1 °C 9.5 °C 1006.9 hPa Calm     96% 0.0 mm W/m2
08:49 10.2 °C 9.6 °C 1006.9 hPa NW 0.3 km/h   96% 0.0 mm W/m2
08:54 10.3 °C 9.7 °C 1006.9 hPa NW 0.2 km/h 0.8 km/h 96% 0.0 mm W/m2
08:59 10.3 °C 9.7 °C 1007.0 hPa NW 2.8 km/h 2.7 km/h 96% 0.0 mm W/m2
09:04 10.3 °C 9.7 °C 1006.9 hPa NW 2.2 km/h 2.3 km/h 96% 0.0 mm W/m2
09:09 10.3 °C 9.7 °C 1006.9 hPa NW 0.4 km/h   96% 0.0 mm W/m2
09:14 10.4 °C 9.8 °C 1007.0 hPa NW 0.4 km/h   96% 0.0 mm W/m2
09:19 10.5 °C 9.9 °C 1007.1 hPa NW 1.9 km/h 2.1 km/h 96% 0.0 mm W/m2
09:24 10.8 °C 10.2 °C 1007.1 hPa NW 3.5 km/h 5 km/h 96% 0.0 mm W/m2
09:29 10.9 °C 10.1 °C 1007.1 hPa NW 2.5 km/h 1.6 km/h 95.2% 0.0 mm W/m2
09:34 11 °C 10.2 °C 1007.1 hPa NW 3.2 km/h 2.1 km/h 95% 0.0 mm W/m2
09:39 11.1 °C 10.3 °C 1007.1 hPa NNW 4.2 km/h 4.5 km/h 95% 0.0 mm W/m2
09:44 11.4 °C 10.6 °C 1007.2 hPa North 2.2 km/h 1 km/h 95% 0.0 mm W/m2
09:49 11.5 °C 10.6 °C 1007.2 hPa North 0.4 km/h 0.2 km/h 94.1% 0.0 mm W/m2
09:54 11.5 °C 10.4 °C 1007.2 hPa North 0.5 km/h 0.2 km/h 93.1% 0.0 mm W/m2
09:59 11.7 °C 10.4 °C 1007.2 hPa North 1.2 km/h 1.6 km/h 92.2% 0.0 mm W/m2
10:04 11.9 °C 10.5 °C 1007.2 hPa North 4.7 km/h 3.7 km/h 91.5% 0.0 mm W/m2
10:09 12 °C 10.5 °C 1007.3 hPa North 4.1 km/h 2.9 km/h 90.2% 0.0 mm W/m2
10:14 12.2 °C 10.5 °C 1007.4 hPa North 3.7 km/h 3.2 km/h 89.3% 0.0 mm W/m2
10:19 12.3 °C 10.3 °C 1007.4 hPa North 2.9 km/h 4.3 km/h 88% 0.0 mm W/m2
10:24 12.4 °C 10.4 °C 1007.4 hPa North 3 km/h 3.1 km/h 88% 0.0 mm W/m2
10:29 12.6 °C 10.4 °C 1007.4 hPa North 3.5 km/h 3.5 km/h 87.1% 0.0 mm W/m2
10:34 12.6 °C 10.2 °C 1007.4 hPa North 4.1 km/h 3.4 km/h 85.2% 0.0 mm W/m2
10:39 12.7 °C 10.1 °C 1007.4 hPa North 4.5 km/h 5.1 km/h 84.5% 0.0 mm W/m2
10:44 12.8 °C 10.2 °C 1007.4 hPa NNE 3.5 km/h 5 km/h 84% 0.0 mm W/m2
10:49 13 °C 10.3 °C 1007.4 hPa NNE 3.1 km/h 4.5 km/h 83.9% 0.0 mm W/m2
10:54 13.1 °C 10.1 °C 1007.3 hPa NNE 6 km/h 4.7 km/h 81.7% 0.0 mm W/m2
10:59 13.2 °C 9.9 °C 1007.4 hPa NNE 3.1 km/h 3.4 km/h 80.3% 0.0 mm W/m2
11:04 13.3 °C 9.9 °C 1007.4 hPa NNE 2.4 km/h 3.1 km/h 80% 0.0 mm W/m2
11:09 13.4 °C 9.9 °C 1007.4 hPa NNE 1.6 km/h 0.3 km/h 79.3% 0.0 mm W/m2
11:14 13.7 °C 10 °C 1007.5 hPa NNE 2.3 km/h 1.6 km/h 78.2% 0.0 mm W/m2
11:19 13.9 °C 10.1 °C 1007.5 hPa North 5.4 km/h 5.5 km/h 77.9% 0.0 mm W/m2
11:24 13.7 °C 9.9 °C 1007.5 hPa North 4 km/h 5.1 km/h 77.6% 0.0 mm W/m2
11:29 13.7 °C 10.1 °C 1007.5 hPa North 2.4 km/h 1.6 km/h 79% 0.0 mm W/m2
11:34 13.8 °C 10.2 °C 1007.5 hPa North 4.9 km/h 4 km/h 79% 0.0 mm W/m2
11:39 13.9 °C 10.3 °C 1007.5 hPa NNE 4 km/h 3.7 km/h 79% 0.0 mm W/m2
11:44 14.2 °C 10.3 °C 1007.5 hPa NNE 1.2 km/h 1.1 km/h 77.6% 0.0 mm W/m2
11:49 14.5 °C 10.3 °C 1007.5 hPa NNE 1.9 km/h 1.8 km/h 75.9% 0.0 mm W/m2
11:54 14.8 °C 10.3 °C 1007.4 hPa North 4.9 km/h 5.3 km/h 74.4% 0.0 mm W/m2
11:59 14.8 °C 10 °C 1007.4 hPa NW 5 km/h 5.5 km/h 72.8% 0.0 mm W/m2
12:04 15 °C 10 °C 1007.3 hPa NW 4.8 km/h 3.4 km/h 72.2% 0.0 mm W/m2
12:09 15.2 °C 10.1 °C 1007.2 hPa NNW 4.6 km/h 4.3 km/h 71.5% 0.0 mm W/m2
12:14 15.4 °C 10.1 °C 1007.3 hPa NNE 5.6 km/h 4.5 km/h 70.8% 0.0 mm W/m2
12:19 15.3 °C 9.7 °C 1007.3 hPa NNW 6 km/h 4 km/h 69% 0.0 mm W/m2
12:24 15 °C 9.1 °C 1007.3 hPa NW 5.7 km/h 4.5 km/h 67.7% 0.0 mm W/m2
12:29 14.7 °C 8.9 °C 1007.3 hPa NW 4 km/h 3.9 km/h 68.2% 0.0 mm W/m2
12:34 14.7 °C 8.9 °C 1007.3 hPa NNW 3.2 km/h 2.6 km/h 68.1% 0.0 mm W/m2
12:39 14.8 °C 8.7 °C 1007.3 hPa NNW 2.8 km/h 1.9 km/h 66.6% 0.0 mm W/m2
12:44 15.1 °C 9.2 °C 1007.3 hPa NNW 5.2 km/h 3.2 km/h 68% 0.0 mm W/m2
12:49 15.2 °C 9.1 °C 1007.3 hPa NNE 5.1 km/h 4.5 km/h 67.3% 0.0 mm W/m2
12:54 15 °C 8.7 °C 1007.2 hPa NNE 3.8 km/h 3.9 km/h 66.1% 0.0 mm W/m2
12:59 14.9 °C 8.3 °C 1007.2 hPa North 4.6 km/h 3.9 km/h 64.9% 0.0 mm W/m2
13:04 15 °C 8.3 °C 1007.1 hPa North 2.9 km/h 2.6 km/h 64% 0.0 mm W/m2
13:09 15.3 °C 8.4 °C 1007.1 hPa NNE 5.9 km/h 5.8 km/h 63.3% 0.0 mm W/m2
13:14 15.6 °C 9.1 °C 1007.2 hPa NNE 5.4 km/h 3.4 km/h 65.6% 0.0 mm W/m2
13:19 15.7 °C 9.2 °C 1007.2 hPa NNE 6.2 km/h 4.7 km/h 65.1% 0.0 mm W/m2
13:24 15.7 °C 8.8 °C 1007.1 hPa North 5.8 km/h 6 km/h 63.5% 0.0 mm W/m2
13:29 15.7 °C 8.4 °C 1007.1 hPa WNW 9.2 km/h 6.1 km/h 61.9% 0.0 mm W/m2
13:34 15.8 °C 8.6 °C 1007.1 hPa North 5.8 km/h 4.2 km/h 62.2% 0.0 mm W/m2
13:39 15.9 °C 8.6 °C 1007.1 hPa NNE 4.7 km/h 3.1 km/h 62% 0.0 mm W/m2
13:44 16.2 °C 9.1 °C 1007.1 hPa North 9.8 km/h 7.9 km/h 63.1% 0.0 mm W/m2
13:49 16.3 °C 8.9 °C 1007.0 hPa NNE 8.6 km/h 7.7 km/h 61.6% 0.0 mm W/m2
13:54 16.2 °C 8.7 °C 1007.0 hPa WNW 6.3 km/h 5.8 km/h 60.9% 0.0 mm W/m2
13:59 16 °C 8.3 °C 1007.0 hPa North 4.7 km/h 5.8 km/h 60% 0.0 mm W/m2
14:04 16.2 °C 8.7 °C 1006.9 hPa NNW 4.3 km/h 5 km/h 60.9% 0.0 mm W/m2
14:09 16.5 °C 8.7 °C 1006.9 hPa NNW 6.4 km/h 5.1 km/h 60% 0.0 mm W/m2
14:14 16.7 °C 8.5 °C 1006.9 hPa NNW 8.2 km/h 6.1 km/h 58.4% 0.0 mm W/m2
14:19 16.9 °C 8.9 °C 1006.9 hPa NNW 8.9 km/h 6.4 km/h 59.2% 0.0 mm W/m2
14:24 17.1 °C 8.9 °C 1007.0 hPa NW 9.6 km/h 8.4 km/h 58.6% 0.0 mm W/m2
14:29 16.8 °C 8.1 °C 1006.9 hPa NW 7.2 km/h 5.5 km/h 56.2% 0.0 mm W/m2
14:34 16.5 °C 7.9 °C 1006.9 hPa NW 5.1 km/h 3.1 km/h 56.8% 0.0 mm W/m2
14:39 16.5 °C 8 °C 1006.9 hPa NNW 1.1 km/h 1.1 km/h 57.1% 0.0 mm W/m2
14:44 16.8 °C 8.4 °C 1006.9 hPa NNW 1.8 km/h 0.6 km/h 57.8% 0.0 mm W/m2
14:49 17.1 °C 8.5 °C 1006.9 hPa NW 5.9 km/h 4.8 km/h 56.8% 0.0 mm W/m2
14:51 17.2 °C 8.8 °C 1006.9 hPa NW 7.4 km/h 3.4 km/h 57.6% 0.0 mm W/m2
Genderen, Netherlands, EU
Compliments of Weather Underground - 2 mb